TCA7224 SVLF-SVBC
Flight info
| Callsign | TCA7224 |
|---|---|
| Flight time | 1h 11m |
| Altitude | 35000 |
| Route | LFA DCT BNS DCT BNA |
| Aircraft | B738/M-SDE2E3FGHIRWXY/LB1 |
Departure
| Time | 2026-04-28 05:51 |
|---|---|
| Airport | La Fria Airport (SVLF) |
Arrival
| Time | 2026-04-28 07:02 |
|---|---|
| Airport | General José Antonio Anzoategui International Airport (SVBC) |
| Time | Latitude | Longitude | Altitude | Speed | Heading |
|---|---|---|---|---|---|
| 2026-04-28 05:31 | 8.23722 | -72.26805 | 332 ft | 0 kts | 90° |
| 2026-04-28 05:41 | 8.23722 | -72.26818 | 333 ft | 2 kts | 90° |
| 2026-04-28 05:41 | 8.23722 | -72.26833 | 332 ft | 2 kts | 90° |
| 2026-04-28 05:41 | 8.23722 | -72.26849 | 332 ft | 2 kts | 90° |
| 2026-04-28 05:41 | 8.23722 | -72.26864 | 332 ft | 2 kts | 90° |
| 2026-04-28 05:42 | 8.23722 | -72.26879 | 332 ft | 2 kts | 90° |
| 2026-04-28 05:42 | 8.23722 | -72.26894 | 332 ft | 2 kts | 90° |
| 2026-04-28 05:42 | 8.23722 | -72.26910 | 332 ft | 2 kts | 89° |
| 2026-04-28 05:42 | 8.23725 | -72.26924 | 332 ft | 2 kts | 115° |
| 2026-04-28 05:43 | 8.23733 | -72.26937 | 332 ft | 2 kts | 134° |
| 2026-04-28 05:43 | 8.23745 | -72.26946 | 332 ft | 2 kts | 155° |
| 2026-04-28 05:43 | 8.23759 | -72.26951 | 331 ft | 2 kts | 175° |
| 2026-04-28 05:43 | 8.23774 | -72.26950 | 331 ft | 2 kts | 182° |
| 2026-04-28 05:44 | 8.23781 | -72.26950 | 331 ft | 0 kts | 179° |
| 2026-04-28 05:46 | 8.23771 | -72.26950 | 331 ft | 4 kts | 179° |
| 2026-04-28 05:46 | 8.23714 | -72.26949 | 332 ft | 9 kts | 180° |
| 2026-04-28 05:46 | 8.23656 | -72.26949 | 334 ft | 7 kts | 179° |
| 2026-04-28 05:47 | 8.23611 | -72.26949 | 334 ft | 5 kts | 179° |
| 2026-04-28 05:47 | 8.23575 | -72.26949 | 335 ft | 5 kts | 180° |
| 2026-04-28 05:47 | 8.23522 | -72.26949 | 336 ft | 9 kts | 181° |
| 2026-04-28 05:47 | 8.23445 | -72.26950 | 338 ft | 12 kts | 181° |
| 2026-04-28 05:48 | 8.23344 | -72.26951 | 340 ft | 15 kts | 180° |
| 2026-04-28 05:48 | 8.23235 | -72.26951 | 342 ft | 14 kts | 179° |
| 2026-04-28 05:48 | 8.23136 | -72.26949 | 344 ft | 13 kts | 180° |
| 2026-04-28 05:48 | 8.23061 | -72.26954 | 345 ft | 7 kts | 202° |
| 2026-04-28 05:49 | 8.23028 | -72.26990 | 345 ft | 6 kts | 240° |
| 2026-04-28 05:49 | 8.23011 | -72.27028 | 346 ft | 5 kts | 255° |
| 2026-04-28 05:49 | 8.23011 | -72.27071 | 346 ft | 6 kts | 274° |
| 2026-04-28 05:49 | 8.23027 | -72.27102 | 345 ft | 5 kts | 345° |
| 2026-04-28 05:50 | 8.23088 | -72.27101 | 344 ft | 15 kts | 1° |
| 2026-04-28 05:50 | 8.23449 | -72.27100 | 338 ft | 91 kts | 0° |
| 2026-04-28 05:50 | 8.24340 | -72.27098 | 318 ft | 160 kts | 1° |
| 2026-04-28 05:50 | 8.25538 | -72.27110 | 818 ft | 176 kts | 360° |
| 2026-04-28 05:51 | 8.26755 | -72.27138 | 1674 ft | 172 kts | 359° |
| 2026-04-28 05:51 | 8.27961 | -72.27213 | 2189 ft | 182 kts | 349° |
| 2026-04-28 05:51 | 8.29157 | -72.27810 | 2555 ft | 205 kts | 316° |
| 2026-04-28 05:51 | 8.29890 | -72.29070 | 3036 ft | 221 kts | 283° |
| 2026-04-28 05:52 | 8.29834 | -72.30665 | 3539 ft | 237 kts | 250° |
| 2026-04-28 05:52 | 8.28936 | -72.32037 | 4334 ft | 237 kts | 219° |
| 2026-04-28 05:52 | 8.27503 | -72.32789 | 5118 ft | 238 kts | 191° |
| 2026-04-28 05:52 | 8.25811 | -72.32790 | 5761 ft | 245 kts | 167° |
| 2026-04-28 05:53 | 8.24223 | -72.32256 | 6662 ft | 239 kts | 148° |
| 2026-04-28 05:53 | 8.22987 | -72.31104 | 7170 ft | 251 kts | 120° |
| 2026-04-28 05:53 | 8.22437 | -72.29408 | 7681 ft | 262 kts | 92° |
| 2026-04-28 05:53 | 8.22702 | -72.27579 | 8469 ft | 264 kts | 72° |
| 2026-04-28 05:54 | 8.23340 | -72.25805 | 9032 ft | 276 kts | 70° |
| 2026-04-28 05:54 | 8.23953 | -72.23901 | 9519 ft | 291 kts | 76° |
| 2026-04-28 05:54 | 8.24400 | -72.21917 | 10381 ft | 291 kts | 79° |
| 2026-04-28 05:54 | 8.24773 | -72.19885 | 10911 ft | 304 kts | 81° |
| 2026-04-28 05:55 | 8.25145 | -72.17725 | 11380 ft | 319 kts | 81° |
| 2026-04-28 05:55 | 8.25541 | -72.15457 | 11918 ft | 330 kts | 80° |
| 2026-04-28 05:55 | 8.25938 | -72.13254 | 13067 ft | 318 kts | 80° |
| 2026-04-28 05:55 | 8.26336 | -72.11079 | 14036 ft | 312 kts | 80° |
| 2026-04-28 05:56 | 8.26725 | -72.08949 | 14840 ft | 310 kts | 80° |
| 2026-04-28 05:56 | 8.27120 | -72.06781 | 15470 ft | 315 kts | 81° |
| 2026-04-28 05:56 | 8.27516 | -72.04617 | 16101 ft | 319 kts | 81° |
| 2026-04-28 05:56 | 8.27931 | -72.02354 | 16464 ft | 332 kts | 81° |
| 2026-04-28 05:57 | 8.28361 | -72.00013 | 16802 ft | 345 kts | 81° |
| 2026-04-28 05:57 | 8.28811 | -71.97573 | 17051 ft | 360 kts | 81° |
| 2026-04-28 05:57 | 8.29276 | -71.95058 | 17296 ft | 374 kts | 81° |
| 2026-04-28 05:57 | 8.29765 | -71.92416 | 17481 ft | 389 kts | 81° |
| 2026-04-28 05:58 | 8.30271 | -71.89681 | 17855 ft | 397 kts | 81° |
| 2026-04-28 05:58 | 8.30783 | -71.86924 | 18330 ft | 402 kts | 81° |
| 2026-04-28 05:58 | 8.31302 | -71.84129 | 18838 ft | 406 kts | 81° |
| 2026-04-28 05:58 | 8.31820 | -71.81336 | 19332 ft | 409 kts | 81° |
| 2026-04-28 05:59 | 8.32349 | -71.78487 | 19839 ft | 412 kts | 81° |
| 2026-04-28 05:59 | 8.32880 | -71.75623 | 20323 ft | 416 kts | 81° |
| 2026-04-28 05:59 | 8.33416 | -71.72734 | 20848 ft | 418 kts | 81° |
| 2026-04-28 05:59 | 8.33957 | -71.69815 | 21330 ft | 421 kts | 81° |
| 2026-04-28 06:00 | 8.34503 | -71.66870 | 21793 ft | 424 kts | 81° |
| 2026-04-28 06:00 | 8.35047 | -71.63934 | 22298 ft | 426 kts | 81° |
| 2026-04-28 06:00 | 8.35597 | -71.60967 | 22717 ft | 430 kts | 81° |
| 2026-04-28 06:00 | 8.36155 | -71.57956 | 23142 ft | 433 kts | 81° |
| 2026-04-28 06:01 | 8.36709 | -71.54969 | 23563 ft | 437 kts | 81° |
| 2026-04-28 06:01 | 8.37271 | -71.51939 | 23983 ft | 440 kts | 81° |
| 2026-04-28 06:01 | 8.37835 | -71.48905 | 24446 ft | 442 kts | 81° |
| 2026-04-28 06:01 | 8.38402 | -71.45848 | 24853 ft | 446 kts | 81° |
| 2026-04-28 06:02 | 8.38981 | -71.42732 | 25299 ft | 448 kts | 81° |
| 2026-04-28 06:02 | 8.39566 | -71.39583 | 25719 ft | 451 kts | 81° |
| 2026-04-28 06:02 | 8.40151 | -71.36440 | 26123 ft | 453 kts | 82° |
| 2026-04-28 06:02 | 8.40736 | -71.33292 | 26534 ft | 456 kts | 82° |
| 2026-04-28 06:03 | 8.41326 | -71.30118 | 26909 ft | 459 kts | 82° |
| 2026-04-28 06:03 | 8.41919 | -71.26931 | 27332 ft | 461 kts | 82° |
| 2026-04-28 06:03 | 8.42519 | -71.23707 | 27703 ft | 464 kts | 82° |
| 2026-04-28 06:03 | 8.43116 | -71.20507 | 28104 ft | 466 kts | 82° |
| 2026-04-28 06:04 | 8.43719 | -71.17272 | 28465 ft | 468 kts | 82° |
| 2026-04-28 06:04 | 8.44322 | -71.14036 | 28849 ft | 470 kts | 82° |
| 2026-04-28 06:04 | 8.44933 | -71.10761 | 29145 ft | 474 kts | 82° |
| 2026-04-28 06:04 | 8.45554 | -71.07431 | 29691 ft | 472 kts | 82° |
| 2026-04-28 06:05 | 8.46164 | -71.04170 | 30153 ft | 472 kts | 82° |
| 2026-04-28 06:05 | 8.46775 | -71.00904 | 30581 ft | 472 kts | 81° |
| 2026-04-28 06:05 | 8.47385 | -70.97646 | 30982 ft | 473 kts | 81° |
| 2026-04-28 06:05 | 8.48001 | -70.94350 | 31381 ft | 473 kts | 81° |
| 2026-04-28 06:06 | 8.48617 | -70.91061 | 31770 ft | 473 kts | 81° |
| 2026-04-28 06:06 | 8.49224 | -70.87818 | 32137 ft | 474 kts | 81° |
| 2026-04-28 06:06 | 8.49843 | -70.84508 | 32505 ft | 474 kts | 81° |
| 2026-04-28 06:06 | 8.50454 | -70.81243 | 32867 ft | 475 kts | 81° |
| 2026-04-28 06:07 | 8.51074 | -70.77936 | 33320 ft | 474 kts | 81° |
| 2026-04-28 06:07 | 8.51688 | -70.74664 | 33771 ft | 473 kts | 81° |
| 2026-04-28 06:07 | 8.52298 | -70.71415 | 34191 ft | 472 kts | 80° |
| 2026-04-28 06:07 | 8.52915 | -70.68118 | 34604 ft | 471 kts | 80° |
| 2026-04-28 06:08 | 8.53525 | -70.64867 | 34988 ft | 470 kts | 80° |
| 2026-04-28 06:08 | 8.54144 | -70.61568 | 35334 ft | 471 kts | 80° |
| 2026-04-28 06:08 | 8.54753 | -70.58334 | 35660 ft | 471 kts | 80° |
| 2026-04-28 06:08 | 8.55369 | -70.55057 | 36015 ft | 470 kts | 80° |
| 2026-04-28 06:09 | 8.55988 | -70.51772 | 36343 ft | 471 kts | 80° |
| 2026-04-28 06:09 | 8.56604 | -70.48501 | 36627 ft | 471 kts | 80° |
| 2026-04-28 06:09 | 8.57219 | -70.45236 | 36935 ft | 471 kts | 79° |
| 2026-04-28 06:09 | 8.57837 | -70.41952 | 37027 ft | 474 kts | 80° |
| 2026-04-28 06:10 | 8.59065 | -70.35438 | 37030 ft | 471 kts | 79° |
| 2026-04-28 06:10 | 8.60296 | -70.28909 | 37024 ft | 471 kts | 80° |
| 2026-04-28 06:11 | 8.61544 | -70.22344 | 37000 ft | 472 kts | 79° |
| 2026-04-28 06:11 | 8.63147 | -70.15886 | 36971 ft | 473 kts | 75° |
| 2026-04-28 06:12 | 8.65007 | -70.09515 | 36990 ft | 474 kts | 74° |
| 2026-04-28 06:12 | 8.66896 | -70.03095 | 36975 ft | 473 kts | 74° |
| 2026-04-28 06:13 | 8.68732 | -69.96703 | 36952 ft | 472 kts | 75° |
| 2026-04-28 06:13 | 8.70538 | -69.90299 | 36945 ft | 473 kts | 75° |
| 2026-04-28 06:14 | 8.72337 | -69.83859 | 36941 ft | 473 kts | 75° |
| 2026-04-28 06:14 | 8.74128 | -69.77420 | 36943 ft | 473 kts | 75° |
| 2026-04-28 06:15 | 8.75906 | -69.71017 | 36944 ft | 473 kts | 75° |
| 2026-04-28 06:15 | 8.77681 | -69.64618 | 36943 ft | 472 kts | 75° |
| 2026-04-28 06:16 | 8.79470 | -69.58168 | 36942 ft | 474 kts | 75° |
| 2026-04-28 06:16 | 8.81254 | -69.51730 | 36945 ft | 473 kts | 75° |
| 2026-04-28 06:17 | 8.83026 | -69.45332 | 36936 ft | 472 kts | 75° |
| 2026-04-28 06:18 | 8.85683 | -69.35727 | 36929 ft | 473 kts | 75° |
| 2026-04-28 06:18 | 8.87448 | -69.29342 | 36925 ft | 473 kts | 75° |
| 2026-04-28 06:19 | 8.89236 | -69.22865 | 36927 ft | 473 kts | 75° |
| 2026-04-28 06:19 | 8.91010 | -69.16438 | 36922 ft | 473 kts | 75° |
| 2026-04-28 06:20 | 8.92783 | -69.10010 | 36921 ft | 471 kts | 75° |
| 2026-04-28 06:20 | 8.94568 | -69.03534 | 36917 ft | 473 kts | 75° |
| 2026-04-28 06:21 | 8.96358 | -68.97038 | 36914 ft | 474 kts | 75° |
| 2026-04-28 06:21 | 8.98124 | -68.90619 | 36922 ft | 474 kts | 75° |
| 2026-04-28 06:22 | 8.99901 | -68.84158 | 36930 ft | 473 kts | 75° |
| 2026-04-28 06:22 | 9.01679 | -68.77689 | 36930 ft | 474 kts | 75° |
| 2026-04-28 06:23 | 9.03460 | -68.71203 | 36927 ft | 472 kts | 75° |
| 2026-04-28 06:23 | 9.05213 | -68.64816 | 36929 ft | 472 kts | 75° |
| 2026-04-28 06:24 | 9.06989 | -68.58340 | 36928 ft | 472 kts | 75° |
| 2026-04-28 06:24 | 9.08747 | -68.51928 | 36928 ft | 473 kts | 75° |
| 2026-04-28 06:25 | 9.10512 | -68.45483 | 36932 ft | 474 kts | 75° |
| 2026-04-28 06:25 | 9.12292 | -68.38977 | 36932 ft | 473 kts | 75° |
| 2026-04-28 06:26 | 9.14059 | -68.32516 | 36928 ft | 472 kts | 76° |
| 2026-04-28 06:26 | 9.15832 | -68.26023 | 36926 ft | 472 kts | 76° |
| 2026-04-28 06:27 | 9.17583 | -68.19610 | 36922 ft | 473 kts | 76° |
| 2026-04-28 06:27 | 9.19367 | -68.13070 | 36929 ft | 472 kts | 76° |
| 2026-04-28 06:28 | 9.21112 | -68.06670 | 36926 ft | 472 kts | 75° |
| 2026-04-28 06:28 | 9.22870 | -68.00219 | 36927 ft | 472 kts | 76° |
| 2026-04-28 06:29 | 9.24612 | -67.93816 | 36931 ft | 473 kts | 76° |
| 2026-04-28 06:29 | 9.26365 | -67.87364 | 36933 ft | 473 kts | 76° |
| 2026-04-28 06:30 | 9.28112 | -67.80939 | 36930 ft | 473 kts | 76° |
| 2026-04-28 06:30 | 9.29867 | -67.74477 | 36936 ft | 472 kts | 76° |
| 2026-04-28 06:31 | 9.31614 | -67.68042 | 36940 ft | 473 kts | 76° |
| 2026-04-28 06:31 | 9.33363 | -67.61592 | 36939 ft | 472 kts | 75° |
| 2026-04-28 06:32 | 9.35109 | -67.55151 | 36936 ft | 472 kts | 76° |
| 2026-04-28 06:32 | 9.36859 | -67.48686 | 36941 ft | 475 kts | 76° |
| 2026-04-28 06:33 | 9.38598 | -67.42258 | 36940 ft | 473 kts | 76° |
| 2026-04-28 06:33 | 9.40356 | -67.35757 | 36944 ft | 474 kts | 76° |
| 2026-04-28 06:34 | 9.42096 | -67.29317 | 36952 ft | 474 kts | 76° |
| 2026-04-28 06:34 | 9.43843 | -67.22848 | 36948 ft | 474 kts | 76° |
| 2026-04-28 06:35 | 9.45587 | -67.16380 | 36959 ft | 474 kts | 76° |
| 2026-04-28 06:35 | 9.47329 | -67.09916 | 36959 ft | 473 kts | 76° |
| 2026-04-28 06:36 | 9.49087 | -67.03391 | 36959 ft | 474 kts | 76° |
| 2026-04-28 06:36 | 9.50821 | -66.96944 | 36972 ft | 474 kts | 76° |
| 2026-04-28 06:37 | 9.52570 | -66.90443 | 36970 ft | 474 kts | 76° |
| 2026-04-28 06:37 | 9.54322 | -66.83923 | 36970 ft | 474 kts | 76° |
| 2026-04-28 06:38 | 9.56062 | -66.77439 | 36964 ft | 475 kts | 76° |
| 2026-04-28 06:38 | 9.57803 | -66.70946 | 36969 ft | 475 kts | 76° |
| 2026-04-28 06:39 | 9.59560 | -66.64390 | 36966 ft | 474 kts | 76° |
| 2026-04-28 06:39 | 9.61287 | -66.57940 | 36969 ft | 473 kts | 76° |
| 2026-04-28 06:40 | 9.63020 | -66.51465 | 36978 ft | 474 kts | 76° |
| 2026-04-28 06:40 | 9.64760 | -66.44958 | 36978 ft | 474 kts | 76° |
| 2026-04-28 06:41 | 9.66491 | -66.38483 | 36943 ft | 472 kts | 76° |
| 2026-04-28 06:41 | 9.67352 | -66.35259 | 36587 ft | 467 kts | 76° |
| 2026-04-28 06:41 | 9.68200 | -66.32100 | 36094 ft | 462 kts | 75° |
| 2026-04-28 06:41 | 9.69157 | -66.28966 | 35083 ft | 469 kts | 72° |
| 2026-04-28 06:42 | 9.70267 | -66.25816 | 33937 ft | 476 kts | 71° |
| 2026-04-28 06:42 | 9.71448 | -66.22691 | 32930 ft | 481 kts | 70° |
| 2026-04-28 06:42 | 9.72674 | -66.19527 | 32146 ft | 481 kts | 70° |
| 2026-04-28 06:42 | 9.73894 | -66.16386 | 31567 ft | 477 kts | 70° |
| 2026-04-28 06:43 | 9.75101 | -66.13251 | 31057 ft | 471 kts | 70° |
| 2026-04-28 06:43 | 9.76274 | -66.10173 | 30624 ft | 464 kts | 71° |
| 2026-04-28 06:43 | 9.77423 | -66.07124 | 30147 ft | 458 kts | 71° |
| 2026-04-28 06:43 | 9.78545 | -66.04122 | 29670 ft | 452 kts | 71° |
| 2026-04-28 06:44 | 9.79655 | -66.01134 | 29180 ft | 446 kts | 71° |
| 2026-04-28 06:44 | 9.80733 | -65.98217 | 28740 ft | 440 kts | 72° |
| 2026-04-28 06:44 | 9.81796 | -65.95333 | 28176 ft | 436 kts | 72° |
| 2026-04-28 06:44 | 9.82862 | -65.92432 | 27590 ft | 433 kts | 72° |
| 2026-04-28 06:45 | 9.83915 | -65.89562 | 27012 ft | 430 kts | 72° |
| 2026-04-28 06:45 | 9.84947 | -65.86751 | 26474 ft | 427 kts | 72° |
| 2026-04-28 06:45 | 9.85990 | -65.83905 | 25902 ft | 424 kts | 72° |
| 2026-04-28 06:45 | 9.87018 | -65.81100 | 25330 ft | 421 kts | 72° |
| 2026-04-28 06:46 | 9.88044 | -65.78303 | 24794 ft | 417 kts | 72° |
| 2026-04-28 06:46 | 9.89044 | -65.75576 | 24232 ft | 415 kts | 72° |
| 2026-04-28 06:46 | 9.90049 | -65.72832 | 23682 ft | 412 kts | 72° |
| 2026-04-28 06:46 | 9.91052 | -65.70094 | 23130 ft | 409 kts | 72° |
| 2026-04-28 06:47 | 9.92050 | -65.67366 | 22580 ft | 406 kts | 72° |
| 2026-04-28 06:47 | 9.93025 | -65.64702 | 22080 ft | 403 kts | 71° |
| 2026-04-28 06:47 | 9.93994 | -65.62053 | 21576 ft | 400 kts | 71° |
| 2026-04-28 06:47 | 9.94966 | -65.59396 | 21066 ft | 397 kts | 71° |
| 2026-04-28 06:48 | 9.95937 | -65.56741 | 20560 ft | 394 kts | 71° |
| 2026-04-28 06:48 | 9.96875 | -65.54176 | 20082 ft | 391 kts | 71° |
| 2026-04-28 06:48 | 9.97826 | -65.51575 | 19588 ft | 387 kts | 71° |
| 2026-04-28 06:48 | 9.98759 | -65.49024 | 19078 ft | 385 kts | 71° |
| 2026-04-28 06:49 | 9.99691 | -65.46472 | 18577 ft | 382 kts | 71° |
| 2026-04-28 06:49 | 10.00609 | -65.43958 | 18079 ft | 378 kts | 71° |
| 2026-04-28 06:49 | 10.01528 | -65.41439 | 17364 ft | 382 kts | 71° |
| 2026-04-28 06:49 | 10.02448 | -65.38914 | 16507 ft | 389 kts | 71° |
| 2026-04-28 06:50 | 10.03392 | -65.36326 | 15616 ft | 395 kts | 71° |
| 2026-04-28 06:50 | 10.04365 | -65.33657 | 14642 ft | 402 kts | 71° |
| 2026-04-28 06:50 | 10.05310 | -65.31071 | 13860 ft | 402 kts | 71° |
| 2026-04-28 06:50 | 10.06274 | -65.28436 | 12849 ft | 394 kts | 71° |
| 2026-04-28 06:51 | 10.07176 | -65.25971 | 11804 ft | 388 kts | 71° |
| 2026-04-28 06:51 | 10.08091 | -65.23467 | 11129 ft | 370 kts | 71° |
| 2026-04-28 06:51 | 10.08956 | -65.21104 | 10952 ft | 340 kts | 71° |
| 2026-04-28 06:51 | 10.09745 | -65.18948 | 10950 ft | 310 kts | 71° |
| 2026-04-28 06:52 | 10.10479 | -65.16933 | 10683 ft | 292 kts | 72° |
| 2026-04-28 06:52 | 10.11156 | -65.15063 | 10376 ft | 278 kts | 72° |
| 2026-04-28 06:52 | 10.11815 | -65.13239 | 9940 ft | 271 kts | 72° |
| 2026-04-28 06:52 | 10.12463 | -65.11446 | 9405 ft | 268 kts | 72° |
| 2026-04-28 06:53 | 10.13107 | -65.09669 | 8855 ft | 266 kts | 72° |
| 2026-04-28 06:53 | 10.13736 | -65.07938 | 8326 ft | 263 kts | 72° |
| 2026-04-28 06:53 | 10.14367 | -65.06203 | 7770 ft | 261 kts | 72° |
| 2026-04-28 06:53 | 10.14998 | -65.04468 | 7227 ft | 259 kts | 72° |
| 2026-04-28 06:54 | 10.15616 | -65.02770 | 6722 ft | 256 kts | 72° |
| 2026-04-28 06:54 | 10.16236 | -65.01064 | 6403 ft | 255 kts | 72° |
| 2026-04-28 06:54 | 10.16845 | -64.99390 | 6042 ft | 253 kts | 72° |
| 2026-04-28 06:54 | 10.17452 | -64.97719 | 5697 ft | 250 kts | 72° |
| 2026-04-28 06:55 | 10.18051 | -64.96075 | 5521 ft | 239 kts | 72° |
| 2026-04-28 06:55 | 10.18618 | -64.94515 | 5290 ft | 233 kts | 71° |
| 2026-04-28 06:55 | 10.19177 | -64.92976 | 4994 ft | 230 kts | 72° |
| 2026-04-28 06:55 | 10.19729 | -64.91456 | 4739 ft | 225 kts | 71° |
| 2026-04-28 06:56 | 10.20262 | -64.89990 | 4567 ft | 214 kts | 71° |
| 2026-04-28 06:56 | 10.20770 | -64.88591 | 4369 ft | 205 kts | 71° |
| 2026-04-28 06:56 | 10.21255 | -64.87255 | 4176 ft | 197 kts | 71° |
| 2026-04-28 06:56 | 10.21718 | -64.85979 | 3993 ft | 190 kts | 71° |
| 2026-04-28 06:57 | 10.22162 | -64.84757 | 3783 ft | 176 kts | 71° |
| 2026-04-28 06:57 | 10.22575 | -64.83617 | 3590 ft | 167 kts | 72° |
| 2026-04-28 06:57 | 10.22937 | -64.82485 | 3415 ft | 168 kts | 81° |
| 2026-04-28 06:57 | 10.22916 | -64.81298 | 3247 ft | 166 kts | 101° |
| 2026-04-28 06:58 | 10.22653 | -64.80155 | 3111 ft | 166 kts | 102° |
| 2026-04-28 06:58 | 10.22285 | -64.79039 | 2968 ft | 168 kts | 114° |
| 2026-04-28 06:58 | 10.21730 | -64.77978 | 2686 ft | 169 kts | 117° |
| 2026-04-28 06:58 | 10.21097 | -64.77029 | 2352 ft | 158 kts | 129° |
| 2026-04-28 06:59 | 10.20285 | -64.76316 | 2036 ft | 151 kts | 140° |
| 2026-04-28 06:59 | 10.19448 | -64.75684 | 1787 ft | 148 kts | 139° |
| 2026-04-28 06:59 | 10.18618 | -64.75042 | 1591 ft | 150 kts | 139° |
| 2026-04-28 06:59 | 10.17770 | -64.74384 | 1390 ft | 151 kts | 140° |
| 2026-04-28 07:00 | 10.16919 | -64.73736 | 1157 ft | 153 kts | 140° |
| 2026-04-28 07:00 | 10.16063 | -64.73070 | 945 ft | 154 kts | 141° |
| 2026-04-28 07:00 | 10.15217 | -64.72414 | 753 ft | 152 kts | 141° |
| 2026-04-28 07:00 | 10.14355 | -64.71744 | 545 ft | 154 kts | 142° |
| 2026-04-28 07:01 | 10.13486 | -64.71070 | 347 ft | 157 kts | 142° |
| 2026-04-28 07:01 | 10.12618 | -64.70387 | 150 ft | 158 kts | 142° |
| 2026-04-28 07:01 | 10.11748 | -64.69711 | 39 ft | 146 kts | 142° |
| 2026-04-28 07:01 | 10.11091 | -64.69202 | 42 ft | 93 kts | 141° |
| 2026-04-28 07:02 | 10.10606 | -64.68826 | 45 ft | 77 kts | 142° |
| 2026-04-28 07:02 | 10.10298 | -64.68587 | 48 ft | 27 kts | 145° |
| 2026-04-28 07:02 | 10.10266 | -64.68535 | 48 ft | 7 kts | 59° |
| 2026-04-28 07:02 | 10.10294 | -64.68495 | 47 ft | 6 kts | 53° |
| 2026-04-28 07:03 | 10.10321 | -64.68460 | 47 ft | 6 kts | 53° |
| 2026-04-28 07:03 | 10.10342 | -64.68421 | 47 ft | 5 kts | 87° |
| 2026-04-28 07:03 | 10.10322 | -64.68391 | 47 ft | 4 kts | 139° |
| 2026-04-28 07:03 | 10.10298 | -64.68370 | 47 ft | 4 kts | 139° |
| 2026-04-28 07:04 | 10.10291 | -64.68351 | 47 ft | 2 kts | 70° |
| 2026-04-28 07:04 | 10.10299 | -64.68336 | 47 ft | 1 kts | 63° |
| 2026-04-28 07:04 | 10.10303 | -64.68329 | 47 ft | 0 kts | 56° |
| 2026-04-28 07:04 | 10.10304 | -64.68327 | 47 ft | 1 kts | 55° |
| 2026-04-28 07:05 | 10.10313 | -64.68313 | 48 ft | 1 kts | 54° |
| 2026-04-28 07:05 | 10.10317 | -64.68308 | 47 ft | 2 kts | 53° |
| 2026-04-28 07:05 | 10.10326 | -64.68296 | 47 ft | 0 kts | 56° |
| 2026-04-28 07:05 | 10.10328 | -64.68293 | 47 ft | 1 kts | 54° |